createdAt,value
2022-11-22T00:00:17.712Z,7.28
2022-11-22T00:03:19.146Z,7.25
2022-11-22T00:06:20.538Z,7.33
2022-11-22T00:09:22.018Z,7.38
2022-11-22T00:12:23.500Z,7.37
2022-11-22T00:15:24.923Z,7.37
2022-11-22T00:18:26.688Z,7.34
2022-11-22T00:21:28.412Z,7.33
2022-11-22T00:24:29.904Z,7.24
2022-11-22T00:27:31.351Z,7.26
2022-11-22T00:30:32.733Z,7.34
2022-11-22T00:33:34.161Z,7.35
2022-11-22T00:36:35.626Z,7.43
2022-11-22T00:39:37.035Z,7.44
2022-11-22T00:42:38.520Z,7.50
2022-11-22T00:45:43.045Z,7.53
2022-11-22T00:48:44.458Z,7.54
2022-11-22T00:51:45.866Z,7.55
2022-11-22T00:54:53.039Z,7.55
2022-11-22T00:57:56.077Z,7.52
2022-11-22T01:00:57.569Z,7.50
2022-11-22T01:03:59.009Z,7.46
2022-11-22T01:07:00.408Z,7.51
2022-11-22T01:10:01.894Z,7.54
2022-11-22T01:13:04.696Z,7.56
2022-11-22T01:16:08.904Z,7.61
2022-11-22T01:19:10.774Z,7.70
2022-11-22T01:22:12.193Z,7.68
2022-11-22T01:25:13.599Z,7.74
2022-11-22T01:28:15.432Z,7.71
2022-11-22T01:31:16.877Z,7.77
2022-11-22T01:34:18.393Z,7.75
2022-11-22T01:37:19.825Z,7.90
2022-11-22T01:40:21.201Z,7.85
2022-11-22T01:43:25.882Z,7.86
2022-11-22T01:46:34.323Z,7.87
2022-11-22T01:49:47.371Z,7.91
2022-11-22T01:52:48.974Z,7.87
2022-11-22T01:55:52.749Z,7.84
2022-11-22T01:58:58.688Z,7.86
2022-11-22T02:02:01.523Z,7.86
2022-11-22T02:05:08.460Z,7.87
2022-11-22T02:08:20.319Z,7.89
2022-11-22T02:11:22.438Z,7.89
2022-11-22T02:14:26.763Z,7.92
2022-11-22T02:17:28.545Z,7.89
2022-11-22T02:20:30.051Z,7.86
2022-11-22T02:23:37.797Z,7.89
2022-11-22T02:26:39.315Z,7.87
2022-11-22T02:29:42.155Z,7.87
2022-11-22T02:32:43.938Z,7.88
2022-11-22T02:35:45.675Z,7.85
2022-11-22T02:38:48.526Z,7.89
2022-11-22T02:41:50.341Z,7.91
2022-11-22T02:44:51.744Z,7.89
2022-11-22T02:47:53.237Z,7.95
2022-11-22T02:50:54.663Z,7.99
2022-11-22T02:53:56.761Z,8.02
2022-11-22T02:56:58.537Z,8.02
2022-11-22T02:59:59.906Z,8.00
2022-11-22T03:03:01.538Z,8.01
2022-11-22T03:06:03.107Z,8.01
2022-11-22T03:09:04.596Z,8.00
2022-11-22T03:12:06.156Z,7.99
2022-11-22T03:15:07.838Z,8.05
2022-11-22T03:18:09.237Z,8.07
2022-11-22T03:21:10.929Z,8.05
2022-11-22T03:24:12.379Z,8.03
2022-11-22T03:27:13.847Z,8.01
2022-11-22T03:30:15.559Z,7.99
2022-11-22T03:33:16.981Z,7.98
2022-11-22T03:36:18.751Z,7.98
2022-11-22T03:39:20.151Z,7.96
2022-11-22T03:42:22.264Z,7.96
2022-11-22T03:45:23.720Z,7.97
2022-11-22T03:48:25.144Z,7.89
2022-11-22T03:51:27.536Z,7.92
2022-11-22T03:54:28.937Z,7.88
2022-11-22T03:57:30.357Z,7.92
2022-11-22T04:00:32.953Z,7.91
2022-11-22T04:03:34.356Z,7.92
2022-11-22T04:06:35.795Z,7.95
2022-11-22T04:09:37.233Z,7.97
2022-11-22T04:12:38.759Z,8.04
2022-11-22T04:15:40.152Z,8.04
2022-11-22T04:18:41.869Z,7.97
2022-11-22T04:21:43.265Z,8.03
2022-11-22T04:25:03.233Z,7.96
2022-11-22T04:28:06.513Z,8.08
2022-11-22T04:31:26.437Z,8.10
2022-11-22T04:34:27.852Z,8.14
2022-11-22T04:37:29.281Z,8.10
2022-11-22T04:40:31.752Z,8.09
2022-11-22T04:43:51.559Z,7.99
2022-11-22T04:46:52.961Z,7.95
2022-11-22T04:49:54.353Z,7.90
2022-11-22T04:52:57.305Z,7.91
2022-11-22T04:55:58.869Z,7.84
2022-11-22T04:59:00.255Z,7.80
2022-11-22T05:02:01.851Z,7.72
2022-11-22T05:05:03.308Z,7.68
2022-11-22T05:08:05.407Z,7.64
2022-11-22T05:11:06.929Z,7.65
2022-11-22T05:14:09.641Z,7.65
2022-11-22T05:17:13.433Z,7.61
2022-11-22T05:20:15.165Z,7.60
2022-11-22T05:23:35.330Z,7.59
2022-11-22T05:26:36.823Z,7.52
2022-11-22T05:29:38.203Z,7.44
2022-11-22T05:32:39.663Z,7.42
2022-11-22T05:35:41.041Z,7.34
2022-11-22T05:38:42.487Z,7.33
2022-11-22T05:41:55.724Z,7.25
2022-11-22T05:44:57.170Z,7.25
2022-11-22T05:47:58.568Z,7.17
2022-11-22T05:51:04.416Z,7.10
2022-11-22T05:54:05.871Z,7.12
2022-11-22T05:57:07.268Z,7.19
2022-11-22T06:00:09.184Z,7.27
2022-11-22T06:03:13.251Z,7.33
2022-11-22T06:06:15.459Z,7.38
2022-11-22T06:09:16.894Z,7.38
2022-11-22T06:12:18.302Z,7.50
2022-11-22T06:15:20.296Z,7.41
2022-11-22T06:18:21.724Z,7.47
2022-11-22T06:21:25.004Z,7.54
2022-11-22T06:24:26.520Z,7.53
2022-11-22T06:27:27.976Z,7.53
2022-11-22T06:30:29.475Z,7.61
2022-11-22T06:33:31.731Z,7.59
2022-11-22T06:36:34.611Z,7.60
2022-11-22T06:39:36.275Z,7.66
2022-11-22T06:42:37.741Z,7.60
2022-11-22T06:45:39.131Z,7.80
2022-11-22T06:48:41.989Z,7.73
2022-11-22T06:51:43.408Z,7.66
2022-11-22T06:54:44.897Z,7.66
2022-11-22T06:57:51.890Z,7.62
2022-11-22T07:00:53.355Z,7.62
2022-11-22T07:03:57.968Z,7.54
2022-11-22T07:06:59.755Z,7.54
2022-11-22T07:10:01.191Z,7.53
2022-11-22T07:13:02.592Z,7.50
2022-11-22T07:16:06.389Z,7.51
2022-11-22T07:19:08.010Z,7.48
2022-11-22T07:22:09.377Z,7.51
2022-11-22T07:25:10.769Z,7.48
2022-11-22T07:28:13.559Z,7.55
2022-11-22T07:31:16.591Z,7.60
2022-11-22T07:34:18.081Z,7.51
2022-11-22T07:37:19.463Z,7.45
2022-11-22T07:40:20.898Z,7.47
2022-11-22T07:43:22.281Z,7.48
2022-11-22T07:46:30.937Z,7.54
2022-11-22T07:49:32.638Z,7.59
2022-11-22T07:52:34.376Z,7.80
2022-11-22T07:55:36.660Z,7.77
2022-11-22T07:58:38.611Z,7.74
2022-11-22T08:01:40.054Z,7.72
2022-11-22T08:04:41.533Z,7.70
2022-11-22T08:07:47.624Z,7.71
2022-11-22T08:10:49.063Z,7.72
2022-11-22T08:13:50.492Z,7.85
2022-11-22T08:16:52.011Z,7.97
2022-11-22T08:19:53.574Z,7.97
2022-11-22T08:22:54.987Z,8.00
2022-11-22T08:25:58.448Z,8.02
2022-11-22T08:29:00.143Z,8.02
2022-11-22T08:32:01.534Z,8.05
2022-11-22T08:35:03.569Z,8.05
2022-11-22T08:38:04.958Z,8.04
2022-11-22T08:41:06.791Z,8.11
2022-11-22T08:44:08.182Z,8.07
2022-11-22T08:47:09.587Z,8.10
2022-11-22T08:50:11.179Z,8.16
2022-11-22T08:53:12.549Z,8.24
2022-11-22T08:56:15.558Z,8.29
2022-11-22T08:59:16.996Z,8.28
2022-11-22T09:02:18.476Z,8.30
2022-11-22T09:05:19.943Z,8.35
2022-11-22T09:11:27.608Z,8.46
2022-11-22T09:14:29.078Z,8.41
2022-11-22T09:17:30.470Z,8.42
2022-11-22T09:20:31.906Z,8.44
2022-11-22T09:23:34.361Z,8.43
2022-11-22T09:26:35.749Z,8.47
2022-11-22T09:29:37.125Z,8.52
2022-11-22T09:32:38.520Z,8.55
2022-11-22T09:35:40.004Z,8.50
2022-11-22T09:38:41.725Z,8.49
2022-11-22T09:41:58.644Z,8.58
2022-11-22T09:45:21.819Z,8.70
2022-11-22T09:48:56.216Z,8.69
2022-11-22T09:52:23.548Z,8.77
2022-11-22T09:55:39.491Z,8.78
2022-11-22T09:58:55.699Z,8.78
2022-11-22T10:02:18.194Z,8.95
2022-11-22T10:05:25.939Z,8.87
2022-11-22T10:08:49.606Z,8.94
2022-11-22T10:12:00.754Z,8.91
2022-11-22T10:15:08.158Z,9.05
2022-11-22T10:18:31.310Z,9.00
2022-11-22T10:21:32.754Z,8.98
2022-11-22T10:24:34.145Z,9.07
2022-11-22T10:27:35.745Z,9.11
2022-11-22T10:30:45.508Z,9.16
2022-11-22T10:34:13.427Z,9.16
2022-11-22T10:37:38.952Z,9.21
2022-11-22T10:40:57.516Z,9.29
2022-11-22T10:44:04.974Z,9.19
2022-11-22T10:47:06.424Z,9.20
2022-11-22T10:50:26.000Z,9.38
2022-11-22T10:54:03.334Z,9.40
2022-11-22T10:57:14.605Z,9.44
2022-11-22T11:00:24.844Z,9.38
2022-11-22T11:03:35.761Z,9.49
2022-11-22T11:07:10.384Z,9.41
2022-11-22T11:10:27.547Z,9.48
2022-11-22T11:13:38.938Z,9.51
2022-11-22T11:16:41.063Z,9.54
2022-11-22T11:19:44.315Z,9.60
2022-11-22T11:23:13.020Z,9.59
2022-11-22T11:26:35.168Z,9.63
2022-11-22T11:29:38.209Z,9.68
2022-11-22T11:32:55.070Z,9.66
2022-11-22T11:36:05.969Z,9.75
2022-11-22T11:39:19.979Z,9.80
2022-11-22T11:42:27.763Z,9.82
2022-11-22T11:45:29.252Z,9.79
2022-11-22T11:48:41.139Z,9.94
2022-11-22T11:51:54.804Z,9.94
2022-11-22T11:54:58.641Z,9.93
2022-11-22T11:58:03.576Z,9.88
2022-11-22T12:01:11.191Z,9.85
2022-11-22T12:04:20.715Z,9.93
2022-11-22T12:07:28.181Z,10.01
2022-11-22T12:10:48.382Z,9.93
2022-11-22T12:17:27.113Z,9.98
2022-11-22T12:20:45.641Z,10.10
2022-11-22T12:23:52.997Z,10.04
2022-11-22T12:26:56.446Z,10.01
2022-11-22T12:29:58.530Z,10.03
2022-11-22T12:33:03.292Z,10.01
2022-11-22T12:36:10.835Z,10.04
2022-11-22T12:39:17.800Z,10.04
2022-11-22T12:42:25.862Z,9.99
2022-11-22T12:45:34.861Z,10.04
2022-11-22T12:48:49.186Z,10.01
2022-11-22T12:51:53.430Z,10.09
2022-11-22T12:55:08.787Z,10.07
2022-11-22T12:58:27.631Z,10.13
2022-11-22T13:01:31.989Z,10.21
2022-11-22T13:04:50.767Z,10.23
2022-11-22T13:08:28.936Z,10.28
2022-11-22T13:11:40.469Z,10.30
2022-11-22T13:14:54.884Z,10.23
2022-11-22T13:17:56.541Z,10.22
2022-11-22T13:21:10.343Z,10.20
2022-11-22T13:24:30.793Z,10.17
2022-11-22T13:27:36.640Z,10.21
2022-11-22T13:30:39.550Z,10.24
2022-11-22T13:33:51.695Z,10.26
2022-11-22T13:36:55.644Z,10.23
2022-11-22T13:40:15.396Z,10.31
2022-11-22T13:43:21.948Z,10.21
2022-11-22T13:46:49.128Z,10.37
2022-11-22T13:49:53.765Z,10.24
2022-11-22T13:52:55.278Z,10.20
2022-11-22T13:56:08.671Z,10.19
2022-11-22T13:59:16.380Z,10.20
2022-11-22T14:02:24.204Z,10.22
2022-11-22T14:05:41.307Z,10.18
2022-11-22T14:08:43.983Z,10.38
2022-11-22T14:12:22.173Z,10.22
2022-11-22T14:15:47.791Z,10.24
2022-11-22T14:19:21.671Z,10.13
2022-11-22T14:22:55.372Z,10.08
2022-11-22T14:26:19.974Z,10.01
2022-11-22T14:29:39.416Z,10.01
2022-11-22T14:33:03.186Z,10.03
2022-11-22T14:36:07.322Z,10.03
2022-11-22T14:39:47.280Z,10.00
2022-11-22T14:42:51.917Z,9.92
2022-11-22T14:45:58.378Z,9.89
2022-11-22T14:49:06.570Z,9.90
2022-11-22T14:52:27.603Z,9.85
2022-11-22T14:55:34.971Z,9.78
2022-11-22T14:58:46.260Z,9.79
2022-11-22T15:02:05.165Z,9.76
2022-11-22T15:09:20.995Z,9.74
2022-11-22T15:09:48.433Z,9.71
2022-11-22T15:13:03.497Z,9.71
2022-11-22T15:57:59.923Z,9.24
2022-11-22T16:01:19.969Z,9.27
2022-11-22T16:04:31.563Z,9.21
2022-11-22T16:07:43.380Z,9.19
2022-11-22T16:10:50.050Z,9.25
2022-11-22T16:13:51.827Z,9.24
2022-11-22T16:16:53.935Z,9.29
2022-11-22T16:20:23.056Z,9.24
2022-11-22T16:23:26.951Z,9.25
2022-11-22T16:26:29.468Z,9.15
2022-11-22T16:29:35.816Z,9.09
2022-11-22T16:32:37.231Z,9.10
2022-11-22T16:35:39.488Z,9.03
2022-11-22T16:38:42.154Z,9.03
2022-11-22T16:41:43.607Z,8.91
2022-11-22T16:44:45.361Z,8.87
2022-11-22T16:47:54.637Z,8.85
2022-11-22T16:51:17.072Z,8.75
2022-11-22T16:54:20.009Z,8.72
2022-11-22T16:57:21.424Z,8.66
2022-11-22T17:00:22.832Z,8.68
2022-11-22T17:03:29.581Z,8.50
2022-11-22T17:06:31.974Z,8.52
2022-11-22T17:09:34.669Z,8.54
2022-11-22T17:12:36.250Z,8.57
2022-11-22T17:15:39.832Z,8.53
2022-11-22T17:18:41.280Z,8.48
2022-11-22T17:21:43.870Z,8.49
2022-11-22T17:24:45.293Z,8.49
2022-11-22T17:27:51.484Z,8.45
2022-11-22T17:30:58.585Z,8.45
2022-11-22T17:33:59.964Z,8.41
2022-11-22T17:37:02.564Z,8.50
2022-11-22T17:40:04.538Z,8.44
2022-11-22T17:43:06.104Z,8.40
2022-11-22T17:46:07.496Z,8.41
2022-11-22T17:49:14.123Z,8.39
2022-11-22T17:52:17.015Z,8.49
2022-11-22T17:55:18.536Z,8.48
2022-11-22T17:58:19.920Z,8.44
2022-11-22T18:01:23.153Z,8.50
2022-11-22T18:04:24.543Z,8.49
2022-11-22T18:07:28.431Z,8.48
2022-11-22T18:10:29.956Z,8.48
2022-11-22T18:13:34.894Z,8.49
2022-11-22T18:16:36.279Z,8.48
2022-11-22T18:19:37.661Z,8.51
2022-11-22T18:22:39.057Z,8.52
2022-11-22T18:25:40.556Z,8.54
2022-11-22T18:28:42.658Z,8.60
2022-11-22T18:31:53.981Z,8.58
2022-11-22T18:34:55.669Z,8.55
2022-11-22T18:37:57.195Z,8.50
2022-11-22T18:40:59.989Z,8.48
2022-11-22T18:44:05.610Z,8.46
2022-11-22T18:47:10.098Z,8.44
2022-11-22T18:50:12.680Z,8.43
2022-11-22T18:53:14.148Z,8.45
2022-11-22T18:56:16.964Z,8.42
2022-11-22T18:59:18.940Z,8.36
2022-11-22T19:02:25.597Z,8.38
2022-11-22T19:05:27.415Z,8.37
2022-11-22T19:08:28.791Z,8.31
2022-11-22T19:11:32.032Z,8.30
2022-11-22T19:14:34.260Z,8.29
2022-11-22T19:17:38.441Z,8.28
2022-11-22T19:20:54.518Z,8.27
2022-11-22T19:23:57.216Z,8.24
2022-11-22T19:26:58.605Z,8.26
2022-11-22T19:30:00.057Z,8.30
2022-11-22T19:33:01.504Z,8.31
2022-11-22T19:36:06.104Z,8.29
2022-11-22T19:39:13.111Z,8.32
2022-11-22T19:42:16.615Z,8.33
2022-11-22T19:45:17.998Z,8.27
2022-11-22T19:48:19.577Z,8.24
2022-11-22T19:51:28.410Z,8.20
2022-11-22T19:54:29.837Z,8.16
2022-11-22T19:57:31.297Z,8.13
2022-11-22T20:00:33.141Z,8.09
2022-11-22T20:03:35.957Z,8.06
2022-11-22T20:06:37.521Z,8.00
2022-11-22T20:09:38.976Z,7.95
2022-11-22T20:12:40.437Z,7.88
2022-11-22T20:15:41.820Z,7.80
2022-11-22T20:18:43.507Z,7.74
2022-11-22T20:21:45.943Z,7.68
2022-11-22T20:24:47.394Z,7.66
2022-11-22T20:27:48.790Z,7.65
2022-11-22T20:30:50.299Z,7.64
2022-11-22T20:33:53.593Z,7.57
2022-11-22T20:36:55.570Z,7.52
2022-11-22T20:39:57.003Z,7.48
2022-11-22T20:42:58.424Z,7.50
2022-11-22T20:46:07.612Z,7.46
2022-11-22T20:49:09.091Z,7.43
2022-11-22T20:52:11.161Z,7.40
2022-11-22T20:55:12.582Z,7.40
2022-11-22T20:58:14.023Z,7.40
2022-11-22T21:01:18.336Z,7.36
2022-11-22T21:04:21.110Z,7.34
2022-11-22T21:07:22.595Z,7.33
2022-11-22T21:10:24.033Z,7.32
2022-11-22T21:13:25.479Z,7.30
2022-11-22T21:16:28.867Z,7.28
2022-11-22T21:19:30.401Z,7.31
2022-11-22T21:22:32.152Z,7.32
2022-11-22T21:25:33.608Z,7.37
2022-11-22T21:28:38.729Z,7.41
2022-11-22T21:31:40.407Z,7.42
2022-11-22T21:34:41.880Z,7.40
2022-11-22T21:37:43.255Z,7.35
2022-11-22T21:41:38.692Z,7.31
2022-11-22T21:44:37.649Z,7.31
2022-11-22T21:47:39.077Z,7.31
2022-11-22T21:50:40.690Z,7.28
2022-11-22T21:53:42.120Z,7.25
2022-11-22T21:56:43.517Z,7.30
2022-11-22T21:59:44.908Z,7.32
2022-11-22T22:02:46.333Z,7.33
2022-11-22T22:05:49.117Z,7.35
2022-11-22T22:08:50.517Z,7.39
2022-11-22T22:11:51.953Z,7.35
2022-11-22T22:14:53.363Z,7.39
2022-11-22T22:17:54.881Z,7.43
2022-11-22T22:21:05.433Z,7.35
2022-11-22T22:24:11.305Z,7.39
2022-11-22T22:27:12.810Z,7.35
2022-11-22T22:30:15.872Z,7.40
2022-11-22T22:33:17.298Z,7.46
2022-11-22T22:36:18.838Z,7.46
2022-11-22T22:39:20.237Z,7.46
2022-11-22T22:42:21.672Z,7.46
2022-11-22T22:45:23.135Z,7.46
2022-11-22T22:48:24.511Z,7.49
2022-11-22T22:51:32.861Z,7.57
2022-11-22T22:54:35.849Z,7.62
2022-11-22T22:57:37.224Z,7.68
2022-11-22T23:00:38.661Z,7.71
2022-11-22T23:03:40.390Z,7.75
2022-11-22T23:06:41.846Z,7.71
2022-11-22T23:09:43.295Z,7.70
2022-11-22T23:12:44.702Z,7.68
2022-11-22T23:15:57.781Z,7.68
2022-11-22T23:18:59.527Z,7.68
2022-11-22T23:22:01.188Z,7.72
2022-11-22T23:25:02.608Z,7.65
2022-11-22T23:28:04.241Z,7.63
2022-11-22T23:31:15.253Z,7.64
2022-11-22T23:34:16.832Z,7.63
2022-11-22T23:37:18.299Z,7.65
2022-11-22T23:40:19.671Z,7.64
2022-11-22T23:43:21.053Z,7.65
2022-11-22T23:46:25.837Z,7.67
2022-11-22T23:49:27.218Z,7.62
2022-11-22T23:52:29.776Z,7.63
2022-11-22T23:55:31.160Z,7.61
2022-11-22T23:58:32.959Z,7.58
